Terminal Aerodrome Forecast
Issued by NWS

Home | Current Version | Previous Version | Text Only | Print | Product List | Glossary On
Versions: 1 2 3 4 5 6 7 8 9 10 11 12 13 14 15 16 17 18 19 20 21 22 23 24 25 26
301
FTUS43 KDVN 161859 AAA
TAFBRL
TAF AMD
KBRL 161859Z 1619/1718 17012G18KT P6SM VCSH SCT017 BKN026
     FM162200 18010KT P6SM VCTS BKN018CB BKN035
      TEMPO 1623/1701 2SM TSRA BR BKN018CB
     FM170400 19010KT 3SM -RA BR VCTS BKN020CB BKN060
     FM171000 23008KT 6SM -RA BR OVC030
     FM171400 26012G18KT 6SM BR BKN030=

USA.gov is the U.S. government's official web portal to all federal, state and local government web resources and services.